sensor_id;sensor_type;location;lat;lon;timestamp;pressure;altitude;pressure_sealevel;temperature;humidity
70250;BME280;57644;48.416;-123.374;2023-02-14T00:01:46;100778.55;;;-0.94;100.00
70250;BME280;57644;48.416;-123.374;2023-02-14T00:04:17;100776.97;;;-1.06;100.00
70250;BME280;57644;48.416;-123.374;2023-02-14T00:06:47;100781.61;;;-1.04;100.00
70250;BME280;57644;48.416;-123.374;2023-02-14T00:09:18;100782.82;;;-1.20;100.00
70250;BME280;57644;48.416;-123.374;2023-02-14T00:11:48;100793.18;;;-0.96;100.00
70250;BME280;57644;48.416;-123.374;2023-02-14T00:14:18;100793.14;;;-0.77;100.00
70250;BME280;57644;48.416;-123.374;2023-02-14T00:16:48;100799.69;;;-0.60;100.00
70250;BME280;57644;48.416;-123.374;2023-02-14T00:19:20;100806.03;;;-0.50;100.00
70250;BME280;57644;48.416;-123.374;2023-02-14T00:21:50;100809.20;;;-0.42;100.00
70250;BME280;57644;48.416;-123.374;2023-02-14T00:24:21;100816.30;;;-0.32;100.00
70250;BME280;57644;48.416;-123.374;2023-02-14T00:26:51;100823.61;;;-0.29;100.00
70250;BME280;57644;48.416;-123.374;2023-02-14T00:29:23;100826.61;;;-0.17;100.00
70250;BME280;57644;48.416;-123.374;2023-02-14T00:31:52;100828.48;;;-0.25;98.25
70250;BME280;57644;48.416;-123.374;2023-02-14T00:34:22;100828.06;;;-0.23;98.07
70250;BME280;57644;48.416;-123.374;2023-02-14T00:36:52;100832.12;;;-0.13;98.44
70250;BME280;57644;48.416;-123.374;2023-02-14T00:39:23;100836.22;;;-0.08;98.04
70250;BME280;57644;48.416;-123.374;2023-02-14T00:41:53;100841.97;;;-0.17;98.98
70250;BME280;57644;48.416;-123.374;2023-02-14T00:44:24;100844.65;;;-0.32;100.00
70250;BME280;57644;48.416;-123.374;2023-02-14T00:46:55;100849.90;;;-0.35;100.00
70250;BME280;57644;48.416;-123.374;2023-02-14T00:49:25;100856.90;;;-0.52;100.00
70250;BME280;57644;48.416;-123.374;2023-02-14T00:51:56;100869.51;;;-0.58;100.00
70250;BME280;57644;48.416;-123.374;2023-02-14T00:54:27;100884.43;;;-0.73;100.00
70250;BME280;57644;48.416;-123.374;2023-02-14T00:56:58;100896.28;;;-0.86;100.00
70250;BME280;57644;48.416;-123.374;2023-02-14T00:59:27;100897.88;;;-1.14;100.00
70250;BME280;57644;48.416;-123.374;2023-02-14T01:01:58;100906.90;;;-1.09;100.00
70250;BME280;57644;48.416;-123.374;2023-02-14T01:04:28;100915.54;;;-1.26;100.00
70250;BME280;57644;48.416;-123.374;2023-02-14T01:07:01;100916.08;;;-1.22;100.00
70250;BME280;57644;48.416;-123.374;2023-02-14T01:09:30;100914.34;;;-1.52;100.00
70250;BME280;57644;48.416;-123.374;2023-02-14T01:12:00;100908.15;;;-1.63;100.00
70250;BME280;57644;48.416;-123.374;2023-02-14T01:14:31;100893.57;;;-1.95;100.00
70250;BME280;57644;48.416;-123.374;2023-02-14T01:17:01;100893.81;;;-1.91;100.00
70250;BME280;57644;48.416;-123.374;2023-02-14T01:19:31;100892.86;;;-1.90;100.00
70250;BME280;57644;48.416;-123.374;2023-02-14T01:22:02;100895.81;;;-1.86;100.00
70250;BME280;57644;48.416;-123.374;2023-02-14T01:24:34;100904.28;;;-1.77;100.00
70250;BME280;57644;48.416;-123.374;2023-02-14T01:27:03;100908.14;;;-1.92;100.00
70250;BME280;57644;48.416;-123.374;2023-02-14T01:29:33;100901.20;;;-2.04;100.00
70250;BME280;57644;48.416;-123.374;2023-02-14T01:32:04;100902.81;;;-2.01;100.00
70250;BME280;57644;48.416;-123.374;2023-02-14T01:34:34;100903.86;;;-2.08;100.00
70250;BME280;57644;48.416;-123.374;2023-02-14T01:37:05;100917.02;;;-2.04;100.00
70250;BME280;57644;48.416;-123.374;2023-02-14T01:39:35;100926.22;;;-1.99;100.00
70250;BME280;57644;48.416;-123.374;2023-02-14T01:42:08;100934.01;;;-2.00;100.00
70250;BME280;57644;48.416;-123.374;2023-02-14T01:47:08;100944.39;;;-2.05;100.00
70250;BME280;57644;48.416;-123.374;2023-02-14T01:49:40;100945.73;;;-2.10;100.00
70250;BME280;57644;48.416;-123.374;2023-02-14T01:52:13;100944.24;;;-2.11;100.00
70250;BME280;57644;48.416;-123.374;2023-02-14T01:54:42;100945.54;;;-2.25;100.00
70250;BME280;57644;48.416;-123.374;2023-02-14T01:57:11;100952.32;;;-2.21;100.00
70250;BME280;57644;48.416;-123.374;2023-02-14T01:59:44;100955.06;;;-2.28;100.00
70250;BME280;57644;48.416;-123.374;2023-02-14T02:02:11;100964.88;;;-2.22;100.00
70250;BME280;57644;48.416;-123.374;2023-02-14T02:04:43;100970.94;;;-2.20;100.00
70250;BME280;57644;48.416;-123.374;2023-02-14T02:07:15;100969.36;;;-2.14;100.00
70250;BME280;57644;48.416;-123.374;2023-02-14T02:09:45;100969.33;;;-2.12;100.00
70250;BME280;57644;48.416;-123.374;2023-02-14T02:12:13;100973.31;;;-2.10;100.00
70250;BME280;57644;48.416;-123.374;2023-02-14T02:14:43;100975.08;;;-2.14;100.00
70250;BME280;57644;48.416;-123.374;2023-02-14T02:17:25;100976.17;;;-2.18;100.00
70250;BME280;57644;48.416;-123.374;2023-02-14T02:19:57;100979.91;;;-2.20;100.00
70250;BME280;57644;48.416;-123.374;2023-02-14T02:24:51;100967.10;;;-2.19;100.00
70250;BME280;57644;48.416;-123.374;2023-02-14T02:37:27;100970.29;;;-2.13;100.00
70250;BME280;57644;48.416;-123.374;2023-02-14T02:40:00;100986.85;;;-2.24;100.00
70250;BME280;57644;48.416;-123.374;2023-02-14T02:42:28;100997.15;;;-2.27;100.00
70250;BME280;57644;48.416;-123.374;2023-02-14T02:44:56;101004.00;;;-2.29;100.00
70250;BME280;57644;48.416;-123.374;2023-02-14T02:47:27;101010.89;;;-2.30;100.00
70250;BME280;57644;48.416;-123.374;2023-02-14T02:50:01;101020.52;;;-2.29;100.00
70250;BME280;57644;48.416;-123.374;2023-02-14T02:52:27;101030.12;;;-2.37;100.00
70250;BME280;57644;48.416;-123.374;2023-02-14T02:54:56;101040.19;;;-2.45;100.00
70250;BME280;57644;48.416;-123.374;2023-02-14T02:57:28;101048.14;;;-2.42;100.00
70250;BME280;57644;48.416;-123.374;2023-02-14T02:59:54;101052.87;;;-2.48;100.00
70250;BME280;57644;48.416;-123.374;2023-02-14T03:02:27;101048.14;;;-2.49;100.00
70250;BME280;57644;48.416;-123.374;2023-02-14T03:04:55;101040.48;;;-2.65;100.00
70250;BME280;57644;48.416;-123.374;2023-02-14T03:07:30;101029.22;;;-2.63;100.00
70250;BME280;57644;48.416;-123.374;2023-02-14T03:09:56;101028.30;;;-2.61;100.00
70250;BME280;57644;48.416;-123.374;2023-02-14T03:15:02;101025.27;;;-2.63;100.00
70250;BME280;57644;48.416;-123.374;2023-02-14T03:17:33;101014.18;;;-2.68;100.00
70250;BME280;57644;48.416;-123.374;2023-02-14T03:20:04;100995.16;;;-2.82;100.00
70250;BME280;57644;48.416;-123.374;2023-02-14T03:22:41;100997.99;;;-3.00;100.00
70250;BME280;57644;48.416;-123.374;2023-02-14T03:25:05;100995.76;;;-3.06;100.00
70250;BME280;57644;48.416;-123.374;2023-02-14T03:27:34;100991.31;;;-3.02;100.00
70250;BME280;57644;48.416;-123.374;2023-02-14T03:30:05;100995.21;;;-2.97;100.00
70250;BME280;57644;48.416;-123.374;2023-02-14T03:32:37;100997.07;;;-3.02;100.00
70250;BME280;57644;48.416;-123.374;2023-02-14T03:35:08;100997.60;;;-3.02;100.00
70250;BME280;57644;48.416;-123.374;2023-02-14T03:37:35;100995.24;;;-2.89;100.00
70250;BME280;57644;48.416;-123.374;2023-02-14T03:40:07;100993.59;;;-2.79;100.00
70250;BME280;57644;48.416;-123.374;2023-02-14T03:42:36;100987.72;;;-2.68;100.00
70250;BME280;57644;48.416;-123.374;2023-02-14T03:45:07;100983.43;;;-2.65;100.00
70250;BME280;57644;48.416;-123.374;2023-02-14T03:47:35;100986.96;;;-2.71;100.00
70250;BME280;57644;48.416;-123.374;2023-02-14T03:50:08;100999.48;;;-2.71;100.00
70250;BME280;57644;48.416;-123.374;2023-02-14T03:52:36;101006.97;;;-2.90;100.00
70250;BME280;57644;48.416;-123.374;2023-02-14T03:55:07;101008.12;;;-2.98;100.00
70250;BME280;57644;48.416;-123.374;2023-02-14T03:57:41;101005.11;;;-3.13;100.00
70250;BME280;57644;48.416;-123.374;2023-02-14T04:00:07;100997.84;;;-3.15;100.00
70250;BME280;57644;48.416;-123.374;2023-02-14T04:02:39;100994.48;;;-3.45;100.00
70250;BME280;57644;48.416;-123.374;2023-02-14T04:05:13;100989.30;;;-3.54;100.00
70250;BME280;57644;48.416;-123.374;2023-02-14T04:07:44;100994.32;;;-3.56;100.00
70250;BME280;57644;48.416;-123.374;2023-02-14T04:10:09;100996.33;;;-3.58;100.00
70250;BME280;57644;48.416;-123.374;2023-02-14T04:12:39;100995.27;;;-3.71;100.00
70250;BME280;57644;48.416;-123.374;2023-02-14T04:15:10;100989.94;;;-3.91;100.00
70250;BME280;57644;48.416;-123.374;2023-02-14T04:17:40;100988.00;;;-4.06;100.00
70250;BME280;57644;48.416;-123.374;2023-02-14T04:20:11;100991.61;;;-3.97;100.00
70250;BME280;57644;48.416;-123.374;2023-02-14T04:22:42;100999.57;;;-3.95;100.00
70250;BME280;57644;48.416;-123.374;2023-02-14T04:25:12;101000.22;;;-3.95;100.00
70250;BME280;57644;48.416;-123.374;2023-02-14T04:27:43;100999.19;;;-3.95;100.00
70250;BME280;57644;48.416;-123.374;2023-02-14T04:30:14;100996.56;;;-3.99;100.00
70250;BME280;57644;48.416;-123.374;2023-02-14T04:32:44;100991.70;;;-3.90;100.00
70250;BME280;57644;48.416;-123.374;2023-02-14T04:35:15;100986.26;;;-3.98;100.00
70250;BME280;57644;48.416;-123.374;2023-02-14T04:37:45;100978.96;;;-4.00;100.00
70250;BME280;57644;48.416;-123.374;2023-02-14T04:40:15;100980.24;;;-3.79;100.00
70250;BME280;57644;48.416;-123.374;2023-02-14T04:42:47;100974.48;;;-3.60;100.00
70250;BME280;57644;48.416;-123.374;2023-02-14T04:45:17;100968.08;;;-3.45;100.00
70250;BME280;57644;48.416;-123.374;2023-02-14T04:47:47;100967.30;;;-3.36;100.00
70250;BME280;57644;48.416;-123.374;2023-02-14T04:50:18;100964.41;;;-3.34;100.00
70250;BME280;57644;48.416;-123.374;2023-02-14T04:52:49;100960.15;;;-3.31;100.00
70250;BME280;57644;48.416;-123.374;2023-02-14T04:55:19;100957.87;;;-3.18;100.00
70250;BME280;57644;48.416;-123.374;2023-02-14T04:57:50;100953.48;;;-3.21;100.00
70250;BME280;57644;48.416;-123.374;2023-02-14T05:00:20;100944.45;;;-3.20;100.00
70250;BME280;57644;48.416;-123.374;2023-02-14T05:02:51;100943.77;;;-3.19;100.00
70250;BME280;57644;48.416;-123.374;2023-02-14T05:05:21;100952.03;;;-3.17;100.00
70250;BME280;57644;48.416;-123.374;2023-02-14T05:07:52;100957.27;;;-3.11;100.00
70250;BME280;57644;48.416;-123.374;2023-02-14T05:10:22;100955.87;;;-3.30;100.00
70250;BME280;57644;48.416;-123.374;2023-02-14T05:12:53;100955.76;;;-3.30;100.00
70250;BME280;57644;48.416;-123.374;2023-02-14T05:15:23;100951.28;;;-3.41;100.00
70250;BME280;57644;48.416;-123.374;2023-02-14T05:17:54;100946.36;;;-3.42;100.00
70250;BME280;57644;48.416;-123.374;2023-02-14T05:20:24;100951.24;;;-3.47;100.00
70250;BME280;57644;48.416;-123.374;2023-02-14T05:22:55;100951.36;;;-3.34;100.00
70250;BME280;57644;48.416;-123.374;2023-02-14T05:25:26;100950.90;;;-3.29;100.00
70250;BME280;57644;48.416;-123.374;2023-02-14T05:27:57;100950.75;;;-3.43;100.00
70250;BME280;57644;48.416;-123.374;2023-02-14T05:30:27;100953.16;;;-3.36;100.00
70250;BME280;57644;48.416;-123.374;2023-02-14T05:32:57;100950.68;;;-3.51;100.00
70250;BME280;57644;48.416;-123.374;2023-02-14T05:35:28;100951.70;;;-3.47;100.00
70250;BME280;57644;48.416;-123.374;2023-02-14T05:37:59;100960.86;;;-3.37;100.00
70250;BME280;57644;48.416;-123.374;2023-02-14T05:40:29;100960.08;;;-3.47;100.00
70250;BME280;57644;48.416;-123.374;2023-02-14T05:43:00;100962.99;;;-3.46;100.00
70250;BME280;57644;48.416;-123.374;2023-02-14T05:45:30;100966.66;;;-3.55;100.00
70250;BME280;57644;48.416;-123.374;2023-02-14T05:48:01;100969.60;;;-3.49;100.00
70250;BME280;57644;48.416;-123.374;2023-02-14T05:50:32;100969.65;;;-3.48;100.00
70250;BME280;57644;48.416;-123.374;2023-02-14T05:53:03;100972.94;;;-3.71;100.00
70250;BME280;57644;48.416;-123.374;2023-02-14T05:55:33;100975.54;;;-3.62;100.00
70250;BME280;57644;48.416;-123.374;2023-02-14T05:58:03;100976.28;;;-3.87;100.00
70250;BME280;57644;48.416;-123.374;2023-02-14T06:00:34;100977.56;;;-3.86;100.00
70250;BME280;57644;48.416;-123.374;2023-02-14T06:03:04;100987.79;;;-4.01;100.00
70250;BME280;57644;48.416;-123.374;2023-02-14T06:05:35;100990.55;;;-3.94;100.00
70250;BME280;57644;48.416;-123.374;2023-02-14T06:08:05;100998.11;;;-3.89;100.00
70250;BME280;57644;48.416;-123.374;2023-02-14T06:10:36;100999.32;;;-3.80;100.00
70250;BME280;57644;48.416;-123.374;2023-02-14T06:13:07;101006.22;;;-3.99;100.00
70250;BME280;57644;48.416;-123.374;2023-02-14T06:15:37;101006.77;;;-4.14;100.00
70250;BME280;57644;48.416;-123.374;2023-02-14T06:18:07;101009.44;;;-4.11;100.00
70250;BME280;57644;48.416;-123.374;2023-02-14T06:20:38;101016.49;;;-4.08;100.00
70250;BME280;57644;48.416;-123.374;2023-02-14T06:23:09;101018.32;;;-3.98;100.00
70250;BME280;57644;48.416;-123.374;2023-02-14T06:25:39;101017.89;;;-3.93;100.00
70250;BME280;57644;48.416;-123.374;2023-02-14T06:28:10;101017.44;;;-3.93;100.00
70250;BME280;57644;48.416;-123.374;2023-02-14T06:30:40;101022.77;;;-4.32;100.00
70250;BME280;57644;48.416;-123.374;2023-02-14T06:33:11;101030.16;;;-4.19;100.00
70250;BME280;57644;48.416;-123.374;2023-02-14T06:35:41;101034.53;;;-4.05;100.00
70250;BME280;57644;48.416;-123.374;2023-02-14T06:38:12;101039.72;;;-3.96;100.00
70250;BME280;57644;48.416;-123.374;2023-02-14T06:40:42;101038.23;;;-3.91;100.00
70250;BME280;57644;48.416;-123.374;2023-02-14T06:43:13;101039.67;;;-3.88;100.00
70250;BME280;57644;48.416;-123.374;2023-02-14T06:45:45;101038.14;;;-3.77;100.00
70250;BME280;57644;48.416;-123.374;2023-02-14T06:48:14;101044.49;;;-3.78;100.00
70250;BME280;57644;48.416;-123.374;2023-02-14T06:50:46;101046.20;;;-3.76;99.40
70250;BME280;57644;48.416;-123.374;2023-02-14T06:53:15;101051.11;;;-3.76;99.08
70250;BME280;57644;48.416;-123.374;2023-02-14T06:55:46;101053.59;;;-3.86;98.64
70250;BME280;57644;48.416;-123.374;2023-02-14T06:58:17;101053.52;;;-3.89;99.58
70250;BME280;57644;48.416;-123.374;2023-02-14T07:00:47;101053.12;;;-3.84;99.50
70250;BME280;57644;48.416;-123.374;2023-02-14T07:03:18;101050.60;;;-3.82;99.23
70250;BME280;57644;48.416;-123.374;2023-02-14T07:05:48;101054.98;;;-3.81;99.27
70250;BME280;57644;48.416;-123.374;2023-02-14T07:08:19;101053.42;;;-3.69;98.35
70250;BME280;57644;48.416;-123.374;2023-02-14T07:10:49;101053.95;;;-3.66;98.09
70250;BME280;57644;48.416;-123.374;2023-02-14T07:13:20;101054.98;;;-3.68;98.13
70250;BME280;57644;48.416;-123.374;2023-02-14T07:15:50;101061.90;;;-3.73;96.57
70250;BME280;57644;48.416;-123.374;2023-02-14T07:18:21;101064.88;;;-3.69;98.15
70250;BME280;57644;48.416;-123.374;2023-02-14T07:20:51;101068.73;;;-3.63;97.96
70250;BME280;57644;48.416;-123.374;2023-02-14T07:23:22;101072.68;;;-3.57;97.69
70250;BME280;57644;48.416;-123.374;2023-02-14T07:25:54;101075.55;;;-3.64;96.87
70250;BME280;57644;48.416;-123.374;2023-02-14T07:28:23;101079.05;;;-3.57;98.02
70250;BME280;57644;48.416;-123.374;2023-02-14T07:30:54;101085.14;;;-3.54;98.06
70250;BME280;57644;48.416;-123.374;2023-02-14T07:33:25;101089.50;;;-3.60;97.33
70250;BME280;57644;48.416;-123.374;2023-02-14T07:35:55;101089.61;;;-3.59;98.46
70250;BME280;57644;48.416;-123.374;2023-02-14T07:38:25;101100.81;;;-3.69;100.00
70250;BME280;57644;48.416;-123.374;2023-02-14T07:40:56;101106.66;;;-3.76;99.42
70250;BME280;57644;48.416;-123.374;2023-02-14T07:43:27;101112.39;;;-3.72;100.00
70250;BME280;57644;48.416;-123.374;2023-02-14T07:45:59;101114.01;;;-3.72;99.60
70250;BME280;57644;48.416;-123.374;2023-02-14T07:48:28;101117.43;;;-3.65;99.89
70250;BME280;57644;48.416;-123.374;2023-02-14T07:50:58;101120.20;;;-3.62;99.46
70250;BME280;57644;48.416;-123.374;2023-02-14T07:53:29;101123.23;;;-3.63;99.20
70250;BME280;57644;48.416;-123.374;2023-02-14T07:56:00;101131.28;;;-3.61;100.00
70250;BME280;57644;48.416;-123.374;2023-02-14T07:58:30;101137.02;;;-3.67;99.53
70250;BME280;57644;48.416;-123.374;2023-02-14T08:01:00;101142.61;;;-3.68;100.00
70250;BME280;57644;48.416;-123.374;2023-02-14T08:03:31;101142.14;;;-3.68;100.00
70250;BME280;57644;48.416;-123.374;2023-02-14T08:06:02;101144.18;;;-3.61;100.00
70250;BME280;57644;48.416;-123.374;2023-02-14T08:08:32;101142.69;;;-3.53;99.62
70250;BME280;57644;48.416;-123.374;2023-02-14T08:11:03;101141.91;;;-3.59;98.03
70250;BME280;57644;48.416;-123.374;2023-02-14T08:13:34;101145.22;;;-3.55;98.41
70250;BME280;57644;48.416;-123.374;2023-02-14T08:16:04;101150.23;;;-3.46;99.21
70250;BME280;57644;48.416;-123.374;2023-02-14T08:18:36;101154.39;;;-3.43;100.00
70250;BME280;57644;48.416;-123.374;2023-02-14T08:21:07;101157.95;;;-3.46;100.00
70250;BME280;57644;48.416;-123.374;2023-02-14T08:23:36;101162.57;;;-3.34;100.00
70250;BME280;57644;48.416;-123.374;2023-02-14T08:26:07;101165.68;;;-3.32;99.24
70250;BME280;57644;48.416;-123.374;2023-02-14T08:28:37;101167.49;;;-3.36;99.70
70250;BME280;57644;48.416;-123.374;2023-02-14T08:31:07;101168.25;;;-3.31;99.25
70250;BME280;57644;48.416;-123.374;2023-02-14T08:33:38;101167.38;;;-3.35;99.79
70250;BME280;57644;48.416;-123.374;2023-02-14T08:36:08;101170.67;;;-3.26;99.97
70250;BME280;57644;48.416;-123.374;2023-02-14T08:38:39;101171.21;;;-3.26;100.00
70250;BME280;57644;48.416;-123.374;2023-02-14T08:41:10;101169.74;;;-3.20;98.16
70250;BME280;57644;48.416;-123.374;2023-02-14T08:43:41;101173.50;;;-3.19;97.06
70250;BME280;57644;48.416;-123.374;2023-02-14T08:46:11;101167.88;;;-3.17;96.56
70250;BME280;57644;48.416;-123.374;2023-02-14T08:48:42;101173.32;;;-3.29;95.54
70250;BME280;57644;48.416;-123.374;2023-02-14T08:51:15;101176.21;;;-3.40;96.02
70250;BME280;57644;48.416;-123.374;2023-02-14T08:53:43;101180.68;;;-3.39;97.42
70250;BME280;57644;48.416;-123.374;2023-02-14T08:56:14;101180.09;;;-3.44;96.27
70250;BME280;57644;48.416;-123.374;2023-02-14T08:58:44;101184.55;;;-3.53;97.31
70250;BME280;57644;48.416;-123.374;2023-02-14T09:01:16;101187.25;;;-3.52;98.67
70250;BME280;57644;48.416;-123.374;2023-02-14T09:03:46;101191.21;;;-3.55;98.38
70250;BME280;57644;48.416;-123.374;2023-02-14T09:06:16;101194.04;;;-3.73;98.13
70250;BME280;57644;48.416;-123.374;2023-02-14T09:08:46;101199.20;;;-3.84;100.00
70250;BME280;57644;48.416;-123.374;2023-02-14T09:11:19;101201.70;;;-3.92;99.48
70250;BME280;57644;48.416;-123.374;2023-02-14T09:13:48;101206.67;;;-3.93;100.00
70250;BME280;57644;48.416;-123.374;2023-02-14T09:16:19;101210.81;;;-3.82;99.40
70250;BME280;57644;48.416;-123.374;2023-02-14T09:18:48;101216.07;;;-3.86;99.13
70250;BME280;57644;48.416;-123.374;2023-02-14T09:21:21;101216.42;;;-3.78;99.72
70250;BME280;57644;48.416;-123.374;2023-02-14T09:23:49;101219.11;;;-3.88;99.78
70250;BME280;57644;48.416;-123.374;2023-02-14T09:26:20;101221.82;;;-3.95;100.00
70250;BME280;57644;48.416;-123.374;2023-02-14T09:28:51;101224.15;;;-4.01;100.00
70250;BME280;57644;48.416;-123.374;2023-02-14T09:31:23;101231.93;;;-4.10;100.00
70250;BME280;57644;48.416;-123.374;2023-02-14T09:33:53;101234.48;;;-4.18;100.00
70250;BME280;57644;48.416;-123.374;2023-02-14T09:36:22;101239.15;;;-4.17;100.00
70250;BME280;57644;48.416;-123.374;2023-02-14T09:38:53;101245.07;;;-4.34;100.00
70250;BME280;57644;48.416;-123.374;2023-02-14T09:41:37;101243.55;;;-4.24;100.00
70250;BME280;57644;48.416;-123.374;2023-02-14T09:43:57;101245.80;;;-4.18;100.00
70250;BME280;57644;48.416;-123.374;2023-02-14T09:46:26;101246.36;;;-4.21;100.00
70250;BME280;57644;48.416;-123.374;2023-02-14T09:48:56;101253.04;;;-4.21;100.00
70250;BME280;57644;48.416;-123.374;2023-02-14T09:51:28;101262.66;;;-4.18;100.00
70250;BME280;57644;48.416;-123.374;2023-02-14T09:54:01;101262.76;;;-4.46;100.00
70250;BME280;57644;48.416;-123.374;2023-02-14T09:56:34;101270.22;;;-4.63;100.00
70250;BME280;57644;48.416;-123.374;2023-02-14T09:59:02;101273.46;;;-4.64;100.00
70250;BME280;57644;48.416;-123.374;2023-02-14T10:01:31;101273.76;;;-4.69;100.00
70250;BME280;57644;48.416;-123.374;2023-02-14T10:06:41;101286.81;;;-4.71;100.00
70250;BME280;57644;48.416;-123.374;2023-02-14T10:09:08;101293.82;;;-4.59;100.00
70250;BME280;57644;48.416;-123.374;2023-02-14T10:11:31;101296.35;;;-4.51;100.00
70250;BME280;57644;48.416;-123.374;2023-02-14T10:14:07;101297.16;;;-4.59;100.00
70250;BME280;57644;48.416;-123.374;2023-02-14T10:16:35;101298.39;;;-4.62;100.00
70250;BME280;57644;48.416;-123.374;2023-02-14T10:19:04;101305.26;;;-4.70;100.00
70250;BME280;57644;48.416;-123.374;2023-02-14T10:21:39;101310.10;;;-4.68;100.00
70250;BME280;57644;48.416;-123.374;2023-02-14T10:24:10;101311.10;;;-4.73;100.00
70250;BME280;57644;48.416;-123.374;2023-02-14T10:26:37;101312.57;;;-4.71;100.00
70250;BME280;57644;48.416;-123.374;2023-02-14T10:29:09;101315.10;;;-4.71;100.00
70250;BME280;57644;48.416;-123.374;2023-02-14T10:31:39;101319.83;;;-4.64;100.00
70250;BME280;57644;48.416;-123.374;2023-02-14T10:34:13;101321.51;;;-4.59;100.00
70250;BME280;57644;48.416;-123.374;2023-02-14T10:36:47;101321.73;;;-4.53;100.00
70250;BME280;57644;48.416;-123.374;2023-02-14T10:39:22;101324.87;;;-4.58;100.00
70250;BME280;57644;48.416;-123.374;2023-02-14T10:41:44;101326.40;;;-4.64;100.00
70250;BME280;57644;48.416;-123.374;2023-02-14T10:44:21;101326.55;;;-4.81;100.00
70250;BME280;57644;48.416;-123.374;2023-02-14T10:46:44;101329.29;;;-4.88;100.00
70250;BME280;57644;48.416;-123.374;2023-02-14T10:49:23;101333.81;;;-4.95;100.00
70250;BME280;57644;48.416;-123.374;2023-02-14T10:51:45;101338.48;;;-4.97;100.00
70250;BME280;57644;48.416;-123.374;2023-02-14T10:54:19;101338.60;;;-4.92;100.00
70250;BME280;57644;48.416;-123.374;2023-02-14T10:56:45;101335.28;;;-5.16;100.00
70250;BME280;57644;48.416;-123.374;2023-02-14T10:59:20;101335.38;;;-5.15;100.00
70250;BME280;57644;48.416;-123.374;2023-02-14T11:01:43;101337.66;;;-5.23;100.00
70250;BME280;57644;48.416;-123.374;2023-02-14T11:04:16;101340.19;;;-5.24;100.00
70250;BME280;57644;48.416;-123.374;2023-02-14T11:06:44;101349.28;;;-5.46;100.00
70250;BME280;57644;48.416;-123.374;2023-02-14T11:09:16;101349.81;;;-5.38;100.00
70250;BME280;57644;48.416;-123.374;2023-02-14T11:11:50;101351.38;;;-5.44;100.00
70250;BME280;57644;48.416;-123.374;2023-02-14T11:14:22;101351.90;;;-5.37;100.00
70250;BME280;57644;48.416;-123.374;2023-02-14T11:16:48;101353.74;;;-5.34;100.00
70250;BME280;57644;48.416;-123.374;2023-02-14T11:19:23;101358.01;;;-5.31;100.00
70250;BME280;57644;48.416;-123.374;2023-02-14T11:21:50;101358.59;;;-5.37;100.00
70250;BME280;57644;48.416;-123.374;2023-02-14T11:24:25;101359.66;;;-5.37;100.00
70250;BME280;57644;48.416;-123.374;2023-02-14T11:26:50;101359.84;;;-5.29;100.00
70250;BME280;57644;48.416;-123.374;2023-02-14T11:29:26;101360.04;;;-5.28;100.00
70250;BME280;57644;48.416;-123.374;2023-02-14T11:31:51;101361.57;;;-5.38;100.00
70250;BME280;57644;48.416;-123.374;2023-02-14T11:34:31;101365.03;;;-5.39;100.00
70250;BME280;57644;48.416;-123.374;2023-02-14T11:36:52;101373.12;;;-5.33;100.00
70250;BME280;57644;48.416;-123.374;2023-02-14T11:39:28;101375.19;;;-5.27;100.00
70250;BME280;57644;48.416;-123.374;2023-02-14T11:41:55;101379.57;;;-5.25;100.00
70250;BME280;57644;48.416;-123.374;2023-02-14T11:44:26;101378.26;;;-5.32;100.00
70250;BME280;57644;48.416;-123.374;2023-02-14T11:46:56;101382.97;;;-5.37;100.00
70250;BME280;57644;48.416;-123.374;2023-02-14T11:49:28;101383.32;;;-5.46;100.00
70250;BME280;57644;48.416;-123.374;2023-02-14T11:51:58;101382.95;;;-5.58;100.00
70250;BME280;57644;48.416;-123.374;2023-02-14T11:54:33;101388.25;;;-5.51;100.00
70250;BME280;57644;48.416;-123.374;2023-02-14T11:57:03;101396.08;;;-5.58;100.00
70250;BME280;57644;48.416;-123.374;2023-02-14T11:59:31;101403.28;;;-5.52;100.00
70250;BME280;57644;48.416;-123.374;2023-02-14T12:02:02;101406.97;;;-5.56;100.00
70250;BME280;57644;48.416;-123.374;2023-02-14T12:04:34;101413.21;;;-5.62;100.00
70250;BME280;57644;48.416;-123.374;2023-02-14T12:09:31;101415.92;;;-5.72;100.00
70250;BME280;57644;48.416;-123.374;2023-02-14T12:12:03;101421.00;;;-5.75;100.00
70250;BME280;57644;48.416;-123.374;2023-02-14T12:14:33;101427.81;;;-5.66;100.00
70250;BME280;57644;48.416;-123.374;2023-02-14T12:17:10;101430.14;;;-5.78;100.00
70250;BME280;57644;48.416;-123.374;2023-02-14T12:19:39;101436.46;;;-5.68;100.00
70250;BME280;57644;48.416;-123.374;2023-02-14T12:22:05;101441.36;;;-5.58;100.00
70250;BME280;57644;48.416;-123.374;2023-02-14T12:24:39;101447.33;;;-5.61;100.00
70250;BME280;57644;48.416;-123.374;2023-02-14T12:27:16;101453.94;;;-5.77;100.00
70250;BME280;57644;48.416;-123.374;2023-02-14T12:29:39;101457.86;;;-5.82;100.00
70250;BME280;57644;48.416;-123.374;2023-02-14T12:32:15;101465.26;;;-5.74;100.00
70250;BME280;57644;48.416;-123.374;2023-02-14T12:34:37;101474.28;;;-5.76;100.00
70250;BME280;57644;48.416;-123.374;2023-02-14T12:37:18;101478.07;;;-5.85;100.00
70250;BME280;57644;48.416;-123.374;2023-02-14T12:39:50;101485.97;;;-5.79;100.00
70250;BME280;57644;48.416;-123.374;2023-02-14T12:42:20;101493.28;;;-5.81;100.00
70250;BME280;57644;48.416;-123.374;2023-02-14T12:44:46;101495.37;;;-5.85;100.00
70250;BME280;57644;48.416;-123.374;2023-02-14T12:47:17;101496.68;;;-5.75;100.00
70250;BME280;57644;48.416;-123.374;2023-02-14T12:54:53;101501.31;;;-5.89;100.00
70250;BME280;57644;48.416;-123.374;2023-02-14T12:57:22;101506.49;;;-5.83;100.00